Time;durP1;ratioP1;P1;durP2;ratioP2;P2;SDS_P1;SDS_P2;PMS_P1;PMS_P2;Temp;Humidity;BMP_temperature;BMP_pressure;BME280_temperature;BME280_humidity;BME280_pressure;Samples;Min_cycle;Max_cycle;Signal;HPM_P1;HPM_P2
2023/01/10 00:01:31;;;;;;;14.10;2.30;;;4.90;99.90;;;;;;5035384;28;20039;-71
2023/01/10 00:03:57;;;;;;;9.68;2.67;;;4.80;99.90;;;;;;5065610;28;20118;-77
2023/01/10 00:06:23;;;;;;;12.57;2.75;;;4.80;99.90;;;;;;5066389;28;20054;-76
2023/01/10 00:08:49;;;;;;;12.88;2.50;;;4.80;99.90;;;;;;5040065;28;20501;-77
2023/01/10 00:13:59;;;;;;;20.95;2.88;;;4.80;99.90;;;;;;5051071;28;20078;-77
2023/01/10 00:16:25;;;;;;;18.17;2.75;;;4.80;99.90;;;;;;5038762;28;20524;-78
2023/01/10 00:18:51;;;;;;;16.73;2.65;;;4.80;99.90;;;;;;5036521;28;20131;-76
2023/01/10 00:21:17;;;;;;;15.40;2.67;;;4.80;99.90;;;;;;5034667;28;20048;-76
2023/01/10 00:23:43;;;;;;;13.55;2.88;;;4.80;99.90;;;;;;5035526;28;20159;-77
2023/01/10 00:26:10;;;;;;;21.10;2.95;;;5.40;99.90;;;;;;5051062;28;20137;-77
2023/01/10 00:28:38;;;;;;;15.02;2.50;;;4.80;99.90;;;;;;5038753;28;20040;-77
2023/01/10 00:31:08;;;;;;;27.67;3.00;;;4.80;99.90;;;;;;5048450;28;20097;-76
2023/01/10 00:33:38;;;;;;;14.10;2.63;;;4.80;99.90;;;;;;5033490;28;20590;-77
2023/01/10 00:36:05;;;;;;;20.60;2.45;;;5.20;99.90;;;;;;5067694;28;20044;-77
2023/01/10 00:38:33;;;;;;;17.02;2.55;;;4.80;99.90;;;;;;5033017;28;20072;-76
2023/01/10 00:40:59;;;;;;;15.38;2.80;;;4.80;99.90;;;;;;5048452;28;20121;-78
2023/01/10 00:46:09;;;;;;;20.92;2.88;;;4.70;99.90;;;;;;5048822;28;20512;-79
2023/01/10 00:48:39;;;;;;;19.33;2.50;;;4.70;99.90;;;;;;5068621;28;20079;-79
2023/01/10 00:51:05;;;;;;;16.67;2.70;;;4.80;99.90;;;;;;5052278;28;20056;-77
2023/01/10 00:53:31;;;;;;;19.67;3.20;;;4.80;99.90;;;;;;5052513;28;20074;-77
2023/01/10 00:55:57;;;;;;;17.25;2.22;;;4.80;99.90;;;;;;5051112;28;20097;-77
2023/01/10 00:58:26;;;;;;;19.50;2.58;;;4.80;99.90;;;;;;5048513;28;20082;-77
2023/01/10 01:00:52;;;;;;;12.25;2.13;;;4.80;99.90;;;;;;5067527;28;20113;-77
2023/01/10 01:03:19;;;;;;;16.45;2.38;;;4.80;99.90;;;;;;5050357;28;20052;-78
2023/01/10 01:05:47;;;;;;;17.02;2.40;;;4.80;99.90;;;;;;5031695;28;20090;-78
2023/01/10 01:08:14;;;;;;;23.40;4.18;;;4.80;99.90;;;;;;5051533;28;20067;-78
2023/01/10 01:10:40;;;;;;;17.42;2.38;;;4.80;99.90;;;;;;5051630;28;20083;-78
2023/01/10 01:13:11;;;;;;;16.85;2.78;;;5.00;99.90;;;;;;5049246;28;20135;-78
2023/01/10 01:15:37;;;;;;;21.10;3.83;;;4.80;99.90;;;;;;5049049;28;20413;-77
2023/01/10 01:18:03;;;;;;;13.60;2.33;;;4.80;99.90;;;;;;5048056;28;20051;-77
2023/01/10 01:20:30;;;;;;;19.15;2.72;;;4.80;99.90;;;;;;5066530;28;20652;-77
2023/01/10 01:22:56;;;;;;;23.48;3.10;;;5.00;99.90;;;;;;5066789;28;20197;-78
2023/01/10 01:25:22;;;;;;;19.48;2.35;;;4.80;99.90;;;;;;5068628;28;20063;-77
2023/01/10 01:27:47;;;;;;;24.42;2.60;;;4.70;99.90;;;;;;5065331;28;20135;-78
2023/01/10 01:30:14;;;;;;;25.40;2.80;;;4.70;99.90;;;;;;5054547;28;20172;-78
2023/01/10 01:32:40;;;;;;;15.45;2.60;;;4.70;99.90;;;;;;5034880;28;20052;-78
2023/01/10 01:35:08;;;;;;;21.02;2.58;;;5.10;99.90;;;;;;5048048;28;20048;-76
2023/01/10 01:37:33;;;;;;;21.85;2.45;;;4.80;99.90;;;;;;5047936;28;20037;-78
2023/01/10 01:39:59;;;;;;;21.10;2.78;;;4.80;99.90;;;;;;5031376;28;20049;-78
2023/01/10 01:42:28;;;;;;;21.88;2.65;;;5.20;99.90;;;;;;5033529;28;20487;-78
2023/01/10 01:45:37;;;;;;;21.73;2.65;;;4.80;99.90;;;;;;5048181;28;20094;-78
2023/01/10 01:48:19;;;;;;;15.23;2.25;;;4.80;99.90;;;;;;5054462;28;20099;-78
2023/01/10 01:51:03;;;;;;;18.10;3.22;;;4.80;99.90;;;;;;5049980;28;20066;-78
2023/01/10 01:53:34;;;;;;;21.20;3.42;;;4.80;99.90;;;;;;5032981;28;20154;-76
2023/01/10 01:56:19;;;;;;;23.20;3.22;;;4.80;99.90;;;;;;5048640;28;20078;-77
2023/01/10 01:58:59;;;;;;;27.45;3.05;;;4.80;99.90;;;;;;5065976;28;20135;-78
2023/01/10 02:01:26;;;;;;;23.40;3.20;;;4.80;99.90;;;;;;5050041;28;20052;-77
2023/01/10 02:04:08;;;;;;;26.92;2.90;;;4.90;99.90;;;;;;5063694;28;20658;-77
2023/01/10 02:06:33;;;;;;;;;;;4.90;99.90;;;;;;5050291;28;20053;-77
2023/01/10 02:09:11;;;;;;;20.98;2.97;;;5.00;99.90;;;;;;5034288;28;19967;-77
2023/01/10 02:11:37;;;;;;;20.98;3.42;;;5.00;99.90;;;;;;5033096;28;20453;-77
2023/01/10 02:14:05;;;;;;;23.42;2.78;;;5.20;99.90;;;;;;5047941;28;20048;-77
2023/01/10 02:16:31;;;;;;;21.77;2.30;;;5.10;99.90;;;;;;5063811;28;20554;-77
2023/01/10 02:18:57;;;;;;;12.63;2.20;;;5.10;99.90;;;;;;5031518;28;20055;-78
2023/01/10 02:22:00;;;;;;;17.25;3.10;;;5.50;99.90;;;;;;5050853;28;20032;-76
2023/01/10 02:25:07;;;;;;;18.73;3.50;;;5.10;99.90;;;;;;5047109;28;20413;-77
2023/01/10 02:28:23;;;;;;;18.52;2.78;;;5.10;99.90;;;;;;5038222;28;20275;-77
2023/01/10 02:31:18;;;;;;;14.57;2.33;;;5.10;99.90;;;;;;4973407;28;20050;-77
2023/01/10 02:34:10;;;;;;;18.80;2.83;;;5.10;99.90;;;;;;4985767;28;20415;-78
2023/01/10 02:37:10;;;;;;;21.25;3.03;;;5.10;99.90;;;;;;5035830;28;20051;-77
2023/01/10 02:39:57;;;;;;;16.90;2.08;;;5.10;99.90;;;;;;5027991;28;20070;-78
2023/01/10 02:43:02;;;;;;;20.85;2.75;;;5.10;99.90;;;;;;5066022;28;20060;-78
2023/01/10 02:45:32;;;;;;;23.70;2.92;;;5.00;99.90;;;;;;5030643;28;20670;-77
2023/01/10 02:47:59;;;;;;;17.35;3.05;;;5.00;99.90;;;;;;5051071;28;20120;-77
2023/01/10 02:50:40;;;;;;;12.70;2.47;;;5.00;99.90;;;;;;5048831;28;20051;-78
2023/01/10 02:53:20;;;;;;;17.20;3.28;;;5.10;99.90;;;;;;5046550;28;20060;-78
2023/01/10 02:55:54;;;;;;;19.95;2.63;;;5.10;99.90;;;;;;5064735;28;20150;-78
2023/01/10 02:58:29;;;;;;;26.45;3.53;;;5.10;99.90;;;;;;5031630;28;20048;-78
2023/01/10 03:01:41;;;;;;;17.15;2.25;;;5.10;99.90;;;;;;5028722;28;20063;-77
2023/01/10 03:04:42;;;;;;;12.02;2.60;;;5.10;99.90;;;;;;5051683;28;20079;-76
2023/01/10 03:07:24;;;;;;;16.55;3.08;;;5.10;99.90;;;;;;5063474;28;20055;-78
2023/01/10 03:09:53;;;;;;;20.05;3.58;;;5.10;99.90;;;;;;5047528;28;20139;-76
2023/01/10 03:12:55;;;;;;;33.53;3.30;;;5.20;99.90;;;;;;5049108;28;20048;-76
2023/01/10 03:15:26;;;;;;;23.60;2.92;;;5.20;99.90;;;;;;5064671;28;20055;-71
2023/01/10 03:17:57;;;;;;;27.90;4.00;;;5.20;99.90;;;;;;5064563;28;20092;-71
2023/01/10 03:20:24;;;;;;;21.20;3.38;;;5.20;99.90;;;;;;5036296;28;20055;-71
2023/01/10 03:22:54;;;;;;;19.58;3.05;;;5.30;99.90;;;;;;5045089;28;20501;-71
2023/01/10 03:25:23;;;;;;;17.92;2.50;;;5.30;99.90;;;;;;5047582;28;20040;-71
2023/01/10 03:28:01;;;;;;;23.83;3.42;;;5.30;99.90;;;;;;5063843;28;20093;-70
2023/01/10 03:30:29;;;;;;;17.75;2.42;;;5.30;99.90;;;;;;5028963;28;20052;-70
2023/01/10 03:32:58;;;;;;;19.02;3.05;;;5.40;99.90;;;;;;5045287;28;20044;-70
2023/01/10 03:35:35;;;;;;;17.42;2.55;;;5.30;99.90;;;;;;5063747;28;20405;-71
2023/01/10 03:38:39;;;;;;;15.60;2.90;;;5.40;99.90;;;;;;5030879;28;20413;-70
2023/01/10 03:41:15;;;;;;;14.85;2.40;;;5.40;99.90;;;;;;5060814;28;20043;-72
2023/01/10 03:47:12;;;;;;;23.63;2.92;;;5.40;99.90;;;;;;4979543;28;20068;-70
2023/01/10 03:49:40;;;;;;;18.48;2.38;;;5.50;99.90;;;;;;5031140;28;20091;-71
2023/01/10 03:52:09;;;;;;;16.23;3.13;;;5.50;99.90;;;;;;5062669;28;20464;-70
2023/01/10 03:54:37;;;;;;;19.42;3.28;;;5.50;99.90;;;;;;5044468;28;20404;-70
2023/01/10 03:57:04;;;;;;;18.05;2.60;;;5.50;99.90;;;;;;5047929;28;20101;-70
2023/01/10 03:59:30;;;;;;;16.70;2.75;;;5.50;99.90;;;;;;5047474;28;20044;-70
2023/01/10 04:01:56;;;;;;;23.33;2.58;;;5.50;99.90;;;;;;5043689;28;20045;-70
2023/01/10 04:04:22;;;;;;;21.80;2.83;;;5.50;99.90;;;;;;5063497;28;20048;-70
2023/01/10 04:06:48;;;;;;;22.13;2.83;;;5.50;99.90;;;;;;5028943;28;20055;-70
2023/01/10 04:09:13;;;;;;;18.98;3.53;;;5.50;99.90;;;;;;5062267;28;20036;-70
2023/01/10 04:11:39;;;;;;;18.58;2.78;;;5.50;99.90;;;;;;5063987;28;20082;-71
2023/01/10 04:14:05;;;;;;;16.67;2.70;;;5.50;99.90;;;;;;5063527;28;20048;-70
2023/01/10 04:16:31;;;;;;;19.95;3.13;;;5.50;99.90;;;;;;5064374;28;20680;-70
2023/01/10 04:18:57;;;;;;;20.83;3.03;;;5.50;99.90;;;;;;5034046;28;20051;-70
2023/01/10 04:21:22;;;;;;;19.40;2.80;;;5.50;99.90;;;;;;5072567;28;20051;-70
2023/01/10 04:23:48;;;;;;;18.15;3.17;;;5.50;99.90;;;;;;5053865;28;20047;-70
2023/01/10 04:26:14;;;;;;;21.75;2.70;;;5.50;99.90;;;;;;5052863;28;20076;-71
2023/01/10 04:28:40;;;;;;;20.80;2.67;;;5.40;99.90;;;;;;5072450;28;20222;-70
2023/01/10 04:31:06;;;;;;;21.23;2.70;;;6.00;99.90;;;;;;5052903;28;20608;-70
2023/01/10 04:33:32;;;;;;;19.40;2.72;;;5.50;99.90;;;;;;5036938;28;20036;-70
2023/01/10 04:35:58;;;;;;;26.23;3.50;;;5.50;99.90;;;;;;5049312;28;20044;-71
2023/01/10 04:38:26;;;;;;;19.33;2.90;;;4.90;99.90;;;;;;5047664;28;20051;-69
2023/01/10 04:40:54;;;;;;;25.95;3.20;;;5.40;99.90;;;;;;5050941;28;20052;-70
2023/01/10 04:43:21;;;;;;;15.13;2.90;;;5.50;99.90;;;;;;5037985;28;20045;-71
2023/01/10 04:45:46;;;;;;;17.13;2.85;;;5.40;99.90;;;;;;5050568;28;20055;-71
2023/01/10 04:48:12;;;;;;;24.55;3.20;;;5.40;99.90;;;;;;5037314;28;20548;-70
2023/01/10 04:50:38;;;;;;;20.15;3.58;;;5.50;99.90;;;;;;5066857;28;20055;-72
2023/01/10 04:53:04;;;;;;;26.63;3.50;;;5.50;99.90;;;;;;5049533;28;20100;-71
2023/01/10 04:55:31;;;;;;;20.35;3.25;;;5.50;99.90;;;;;;5053780;28;20063;-71
2023/01/10 04:57:57;;;;;;;22.00;2.78;;;5.60;99.90;;;;;;5046427;28;20040;-69
2023/01/10 05:00:26;;;;;;;15.90;2.47;;;5.60;99.90;;;;;;5048659;28;20075;-71
2023/01/10 05:02:56;;;;;;;23.48;2.95;;;5.60;99.90;;;;;;5052612;28;20509;-71
2023/01/10 05:05:22;;;;;;;17.90;2.30;;;5.60;99.90;;;;;;5050227;28;20055;-71
2023/01/10 05:07:48;;;;;;;18.08;2.83;;;5.60;99.90;;;;;;5033092;28;20500;-70
2023/01/10 05:10:14;;;;;;;26.38;2.95;;;5.60;99.90;;;;;;5065394;28;20063;-71
2023/01/10 05:12:40;;;;;;;17.80;3.10;;;5.60;99.90;;;;;;5046560;28;20596;-70
2023/01/10 05:15:06;;;;;;;25.05;2.70;;;5.60;99.90;;;;;;5028710;28;20135;-71
2023/01/10 05:17:32;;;;;;;18.27;2.97;;;5.60;99.90;;;;;;5016836;28;20119;-72
2023/01/10 05:19:58;;;;;;;19.80;3.38;;;6.10;99.90;;;;;;5021009;28;20060;-70
2023/01/10 05:22:24;;;;;;;14.73;2.53;;;5.60;99.90;;;;;;5041546;28;20555;-71
2023/01/10 05:24:50;;;;;;;18.02;3.28;;;5.60;99.90;;;;;;5024824;28;20593;-71
2023/01/10 05:27:16;;;;;;;22.40;3.20;;;5.60;99.90;;;;;;5011520;28;20052;-71
2023/01/10 05:29:42;;;;;;;23.15;2.25;;;6.20;99.90;;;;;;5017265;28;20040;-71
2023/01/10 05:32:07;;;;;;;17.73;3.10;;;5.60;99.90;;;;;;5052295;28;20056;-71
2023/01/10 05:34:33;;;;;;;22.85;3.10;;;5.60;99.90;;;;;;5018318;28;20048;-72
2023/01/10 05:36:59;;;;;;;16.85;2.42;;;5.60;99.90;;;;;;5049093;28;20041;-71
2023/01/10 05:39:25;;;;;;;22.70;3.53;;;5.90;99.90;;;;;;5018065;28;20055;-71
2023/01/10 05:41:51;;;;;;;14.15;3.03;;;5.60;99.90;;;;;;5030492;28;20052;-72
2023/01/10 05:44:16;;;;;;;19.02;2.90;;;5.90;99.90;;;;;;5047500;28;20048;-72
2023/01/10 05:46:42;;;;;;;21.85;2.83;;;5.70;99.90;;;;;;5044460;28;20040;-71
2023/01/10 05:49:08;;;;;;;17.50;2.60;;;5.70;99.90;;;;;;5004746;28;20202;-71
2023/01/10 05:51:34;;;;;;;18.00;2.72;;;5.70;99.90;;;;;;5029116;28;20125;-69
2023/01/10 05:53:59;;;;;;;17.27;2.63;;;5.70;99.90;;;;;;5042038;28;20897;-72
2023/01/10 05:56:25;;;;;;;14.77;2.22;;;5.70;99.90;;;;;;5028138;28;20077;-72
2023/01/10 05:58:51;;;;;;;16.85;2.50;;;5.70;99.90;;;;;;5034184;28;20082;-70
2023/01/10 06:01:17;;;;;;;14.20;2.33;;;6.40;99.90;;;;;;5046773;28;20326;-72
2023/01/10 06:03:43;;;;;;;13.35;2.22;;;5.90;99.90;;;;;;5034899;28;20048;-71
2023/01/10 06:06:08;;;;;;;10.85;2.60;;;5.60;99.90;;;;;;5036316;28;20907;-72
2023/01/10 06:08:35;;;;;;;12.88;2.10;;;5.60;99.90;;;;;;5011288;28;20063;-71
2023/01/10 06:11:04;;;;;;;16.08;2.80;;;5.60;99.90;;;;;;5055858;28;20502;-70
2023/01/10 06:13:31;;;;;;;12.40;2.20;;;5.70;99.90;;;;;;5033778;28;20052;-73
2023/01/10 06:15:57;;;;;;;15.13;2.17;;;6.20;99.90;;;;;;5073028;28;20053;-71
2023/01/10 06:18:26;;;;;;;12.00;2.13;;;5.60;99.90;;;;;;5071152;28;20481;-70
2023/01/10 06:20:52;;;;;;;13.88;2.50;;;5.70;99.90;;;;;;5041067;28;20139;-71
2023/01/10 06:23:18;;;;;;;10.82;2.38;;;5.70;99.90;;;;;;5043183;28;20044;-71
2023/01/10 06:25:44;;;;;;;12.43;2.10;;;6.10;99.90;;;;;;5053237;28;20047;-71
2023/01/10 06:28:12;;;;;;;8.60;1.52;;;5.60;99.90;;;;;;5055558;28;20034;-70
2023/01/10 06:30:40;;;;;;;14.32;1.95;;;5.60;99.90;;;;;;5053399;28;20038;-72
2023/01/10 06:33:08;;;;;;;11.40;1.60;;;5.60;99.90;;;;;;5070432;28;20040;-72
2023/01/10 06:35:34;;;;;;;7.80;1.58;;;5.80;99.90;;;;;;5043831;28;20047;-70
2023/01/10 06:38:00;;;;;;;8.90;1.73;;;5.60;99.90;;;;;;5045114;28;20066;-71
2023/01/10 06:40:27;;;;;;;15.13;1.80;;;5.60;99.90;;;;;;5058232;28;20040;-72
2023/01/10 06:42:53;;;;;;;9.43;1.60;;;5.60;99.90;;;;;;5058986;28;20056;-71
2023/01/10 06:45:19;;;;;;;9.05;1.80;;;5.50;99.90;;;;;;5081067;28;20044;-77
2023/01/10 06:47:45;;;;;;;8.38;1.85;;;5.50;99.90;;;;;;5061312;28;20539;-76
2023/01/10 06:50:12;;;;;;;12.38;1.98;;;5.50;99.90;;;;;;5044691;28;20047;-76
2023/01/10 06:52:39;;;;;;;15.55;1.88;;;5.50;99.90;;;;;;5070788;28;20052;-71
2023/01/10 06:55:05;;;;;;;11.32;1.77;;;5.50;99.90;;;;;;5074147;28;20044;-72
2023/01/10 06:57:34;;;;;;;12.75;2.25;;;5.40;99.90;;;;;;5055067;28;20474;-71
2023/01/10 07:00:05;;;;;;;18.90;2.88;;;5.40;99.90;;;;;;5053242;28;20056;-71
2023/01/10 07:02:30;;;;;;;13.85;2.65;;;5.40;99.90;;;;;;5053131;28;20056;-71
2023/01/10 07:04:56;;;;;;;21.17;3.08;;;5.50;99.90;;;;;;5058144;28;20627;-72
2023/01/10 07:07:22;;;;;;;18.10;2.75;;;5.40;99.90;;;;;;5049984;28;20056;-72
2023/01/10 07:09:48;;;;;;;22.10;3.50;;;5.40;99.90;;;;;;5037047;28;20055;-71
2023/01/10 07:12:13;;;;;;;20.00;2.88;;;5.40;99.90;;;;;;5071428;28;20822;-72
2023/01/10 07:14:39;;;;;;;18.48;2.65;;;6.10;99.90;;;;;;5036525;28;20597;-72
2023/01/10 07:17:05;;;;;;;23.40;3.30;;;5.40;99.90;;;;;;5031687;28;20059;-72
2023/01/10 07:19:30;;;;;;;24.33;3.25;;;5.40;99.90;;;;;;5044656;28;20041;-71
2023/01/10 07:21:56;;;;;;;22.58;3.47;;;5.50;99.90;;;;;;5051167;28;20045;-71
2023/01/10 07:24:22;;;;;;;21.33;3.33;;;5.50;99.90;;;;;;5049680;28;20144;-70
2023/01/10 07:26:48;;;;;;;20.85;3.28;;;5.40;99.90;;;;;;5044732;28;20069;-71
2023/01/10 07:29:13;;;;;;;20.48;3.60;;;5.50;99.90;;;;;;5045622;28;20048;-71
2023/01/10 07:31:39;;;;;;;22.70;3.50;;;5.50;99.90;;;;;;5052384;28;20033;-70
2023/01/10 07:34:05;;;;;;;21.50;4.07;;;5.50;99.90;;;;;;5030542;28;20076;-72
2023/01/10 07:36:31;;;;;;;22.17;3.25;;;5.50;99.90;;;;;;5042395;28;20040;-71
2023/01/10 07:38:56;;;;;;;32.72;4.13;;;5.50;99.90;;;;;;5034940;28;20057;-71
2023/01/10 07:41:22;;;;;;;22.27;3.92;;;5.50;99.90;;;;;;5034946;28;20045;-72
2023/01/10 07:43:48;;;;;;;31.00;3.97;;;5.50;99.90;;;;;;5046618;28;20102;-72
2023/01/10 07:46:13;;;;;;;26.20;3.40;;;5.60;99.90;;;;;;5010461;28;20103;-72
2023/01/10 07:48:42;;;;;;;28.45;3.80;;;5.60;99.90;;;;;;5014733;28;20049;-72
2023/01/10 07:51:08;;;;;;;20.80;3.38;;;5.60;99.90;;;;;;5024715;28;20059;-72
2023/01/10 07:53:34;;;;;;;15.80;3.05;;;5.60;99.90;;;;;;5021496;28;20053;-72
2023/01/10 07:56:02;;;;;;;23.48;4.03;;;5.60;99.90;;;;;;5022287;28;20118;-71
2023/01/10 07:58:28;;;;;;;21.50;4.30;;;5.60;99.90;;;;;;5037464;28;20040;-71
2023/01/10 08:01:03;;;;;;;22.90;4.03;;;5.60;99.90;;;;;;5040477;28;20056;-71
2023/01/10 08:03:29;;;;;;;29.23;4.47;;;5.90;99.90;;;;;;5023657;28;20106;-71
2023/01/10 08:05:59;;;;;;;32.15;4.80;;;5.60;99.90;;;;;;5043986;28;20094;-71
2023/01/10 08:08:25;;;;;;;22.33;4.20;;;5.50;99.90;;;;;;5059886;28;20540;-71
2023/01/10 08:10:51;;;;;;;24.15;4.10;;;5.50;99.90;;;;;;5017020;28;20080;-72
2023/01/10 08:13:17;;;;;;;28.15;4.15;;;5.50;99.90;;;;;;5030796;28;20048;-72
2023/01/10 08:15:44;;;;;;;29.17;4.70;;;5.50;99.90;;;;;;5041303;28;20113;-73
2023/01/10 08:18:09;;;;;;;25.50;4.00;;;5.50;99.90;;;;;;5072525;28;20467;-72
2023/01/10 08:20:35;;;;;;;38.40;4.90;;;5.50;99.90;;;;;;5042425;28;20048;-71
2023/01/10 08:23:01;;;;;;;23.23;4.25;;;5.40;99.90;;;;;;5056178;28;20035;-71
2023/01/10 08:25:27;;;;;;;25.88;3.90;;;5.50;99.90;;;;;;5062020;28;20680;-71
2023/01/10 08:27:52;;;;;;;27.27;4.10;;;5.40;99.90;;;;;;5073143;28;20039;-71
2023/01/10 08:30:18;;;;;;;24.80;5.30;;;5.40;99.90;;;;;;5071286;28;20048;-71
2023/01/10 08:32:44;;;;;;;32.97;4.22;;;5.40;99.90;;;;;;5067337;28;20040;-72
2023/01/10 08:35:10;;;;;;;26.15;4.00;;;5.40;99.90;;;;;;5041338;28;20059;-71
2023/01/10 08:37:36;;;;;;;29.50;4.25;;;5.50;99.90;;;;;;5077053;28;20116;-71
2023/01/10 08:40:02;;;;;;;32.05;4.15;;;5.50;99.90;;;;;;5055713;28;20541;-70
2023/01/10 08:42:28;;;;;;;38.95;4.22;;;5.50;99.90;;;;;;5043808;28;20143;-71
2023/01/10 08:44:56;;;;;;;29.17;3.92;;;5.50;99.90;;;;;;5073800;28;20059;-72
2023/01/10 08:47:22;;;;;;;31.13;5.13;;;5.60;99.90;;;;;;5043638;28;20520;-71
2023/01/10 08:49:48;;;;;;;31.60;4.88;;;5.50;99.90;;;;;;5055767;28;20036;-70
2023/01/10 08:52:15;;;;;;;31.15;4.40;;;5.50;99.90;;;;;;5040879;28;20054;-70
2023/01/10 08:54:41;;;;;;;31.65;4.97;;;5.50;99.90;;;;;;5060501;28;20036;-72
2023/01/10 08:57:07;;;;;;;37.60;4.95;;;5.50;99.90;;;;;;5067243;28;20113;-71
2023/01/10 08:59:32;;;;;;;39.30;6.10;;;5.50;99.90;;;;;;5056293;28;20456;-71
2023/01/10 09:01:58;;;;;;;34.63;5.25;;;5.50;99.90;;;;;;5050223;28;20130;-71
2023/01/10 09:04:27;;;;;;;32.63;5.07;;;5.50;99.90;;;;;;5053463;28;20396;-71
2023/01/10 09:06:54;;;;;;;31.88;4.68;;;5.50;99.90;;;;;;5072310;28;20052;-71
2023/01/10 09:09:20;;;;;;;31.60;4.47;;;5.50;99.90;;;;;;5061639;28;20040;-71
2023/01/10 09:11:46;;;;;;;36.05;4.70;;;5.50;99.90;;;;;;5039034;28;20263;-71
2023/01/10 09:14:12;;;;;;;25.27;4.47;;;5.60;99.90;;;;;;5052055;28;20421;-71
2023/01/10 09:16:38;;;;;;;31.20;4.63;;;5.60;99.90;;;;;;5032816;28;20045;-71
2023/01/10 09:19:04;;;;;;;33.25;4.43;;;5.60;99.90;;;;;;5050849;28;20045;-70
2023/01/10 09:21:30;;;;;;;36.08;5.05;;;5.70;99.90;;;;;;5058178;28;20051;-70
2023/01/10 09:23:55;;;;;;;33.58;4.75;;;5.70;99.90;;;;;;5045611;28;20133;-71
2023/01/10 09:26:21;;;;;;;28.08;3.92;;;5.70;99.90;;;;;;5051672;28;20044;-70
2023/01/10 09:28:48;;;;;;;24.33;4.60;;;5.70;99.90;;;;;;5017104;28;20052;-71
2023/01/10 09:31:13;;;;;;;26.00;4.10;;;5.70;99.90;;;;;;5050106;28;20119;-71
2023/01/10 09:33:43;;;;;;;27.42;3.72;;;5.70;99.90;;;;;;5037636;28;20120;-71
2023/01/10 09:36:10;;;;;;;23.98;4.20;;;5.70;99.90;;;;;;5028282;28;20044;-71
2023/01/10 09:38:36;;;;;;;21.30;3.88;;;5.80;99.90;;;;;;5020706;28;20049;-72
2023/01/10 09:41:24;;;;;;;29.83;4.78;;;5.80;99.90;;;;;;5033938;28;20055;-70
2023/01/10 09:44:18;;;;;;;20.85;3.05;;;5.80;99.90;;;;;;5031632;28;20041;-71
2023/01/10 09:47:11;;;;;;;27.80;4.10;;;5.80;99.90;;;;;;5039181;28;20044;-71
2023/01/10 09:49:50;;;;;;;26.38;3.85;;;5.80;99.90;;;;;;5033404;28;20138;-71
2023/01/10 09:52:24;;;;;;;26.27;4.40;;;5.90;99.90;;;;;;5043400;28;20044;-70
2023/01/10 09:54:54;;;;;;;24.90;4.20;;;5.90;99.90;;;;;;5014213;28;20214;-71
2023/01/10 09:57:22;;;;;;;30.52;4.30;;;5.90;99.90;;;;;;5053921;28;20044;-71
2023/01/10 09:59:50;;;;;;;27.15;3.88;;;6.20;99.90;;;;;;5017173;28;20052;-70
2023/01/10 10:02:31;;;;;;;25.00;4.82;;;5.90;99.90;;;;;;5014777;28;20048;-70
2023/01/10 10:05:03;;;;;;;23.70;4.72;;;5.90;99.90;;;;;;5019176;28;20057;-71
2023/01/10 10:07:29;;;;;;;28.38;4.90;;;6.00;99.90;;;;;;5036897;28;20087;-70
2023/01/10 10:09:55;;;;;;;23.50;4.40;;;6.00;99.90;;;;;;5056766;28;20080;-72
2023/01/10 10:12:43;;;;;;;32.05;4.97;;;6.10;99.90;;;;;;5052166;28;20046;-71
2023/01/10 10:15:21;;;;;;;26.25;5.25;;;6.10;99.90;;;;;;5041222;28;20385;-71
2023/01/10 10:17:53;;;;;;;37.55;5.72;;;6.10;99.90;;;;;;5049681;28;20537;-71
2023/01/10 10:20:30;;;;;;;;;;;6.10;99.90;;;;;;5078608;28;20051;-70
2023/01/10 10:23:11;;;;;;;30.20;4.60;;;6.20;99.90;;;;;;5055494;28;19931;-71
2023/01/10 10:25:50;;;;;;;22.05;4.47;;;6.20;99.90;;;;;;5071490;28;20047;-71
2023/01/10 10:28:31;;;;;;;28.15;3.95;;;6.20;99.90;;;;;;5050846;28;20143;-71
2023/01/10 10:31:30;;;;;;;30.23;4.63;;;6.20;99.90;;;;;;5038971;28;20114;-70
2023/01/10 10:34:23;;;;;;;24.88;4.63;;;6.20;99.90;;;;;;5051345;28;20056;-70
2023/01/10 10:36:59;;;;;;;27.05;4.25;;;6.30;99.90;;;;;;5063264;28;20109;-70
2023/01/10 10:39:48;;;;;;;30.77;4.18;;;6.30;99.90;;;;;;5051490;28;20036;-71
2023/01/10 10:42:17;;;;;;;22.20;4.15;;;6.30;99.90;;;;;;5042848;28;20429;-70
2023/01/10 10:44:58;;;;;;;30.50;4.53;;;6.50;99.90;;;;;;5041168;28;20032;-70
2023/01/10 10:47:33;;;;;;;24.67;4.13;;;6.30;99.90;;;;;;5069270;28;20048;-69
2023/01/10 10:50:14;;;;;;;30.58;4.90;;;6.40;99.90;;;;;;5072310;28;20044;-72
2023/01/10 10:52:41;;;;;;;21.40;4.15;;;6.40;99.90;;;;;;5067796;28;20491;-71
2023/01/10 10:55:15;;;;;;;27.13;4.20;;;6.40;99.90;;;;;;5078964;28;20052;-71
2023/01/10 10:57:44;;;;;;;27.85;4.88;;;6.40;99.90;;;;;;5061840;28;20043;-71
2023/01/10 11:00:18;;;;;;;31.63;5.22;;;6.40;99.90;;;;;;5057897;28;20048;-71
2023/01/10 11:02:56;;;;;;;24.50;4.75;;;6.40;99.90;;;;;;5051522;28;20048;-71
2023/01/10 11:05:36;;;;;;;29.77;4.65;;;6.50;99.90;;;;;;5035728;28;20043;-72
2023/01/10 11:08:17;;;;;;;30.05;5.20;;;6.50;99.90;;;;;;5036106;28;20048;-71
2023/01/10 11:10:46;;;;;;;34.53;5.30;;;6.50;99.90;;;;;;5076324;28;20851;-71
2023/01/10 11:13:31;;;;;;;25.30;4.50;;;6.50;99.90;;;;;;5037759;28;20063;-71
2023/01/10 11:15:58;;;;;;;28.48;5.85;;;7.00;99.90;;;;;;5054416;28;20440;-72
2023/01/10 11:18:26;;;;;;;31.27;6.53;;;6.50;99.90;;;;;;5075608;28;20649;-71
2023/01/10 11:20:57;;;;;;;30.73;6.00;;;6.60;99.90;;;;;;5059460;28;20048;-70
2023/01/10 11:23:48;;;;;;;29.73;5.95;;;6.60;99.90;;;;;;5043768;28;20273;-72
2023/01/10 11:26:38;;;;;;;33.30;6.65;;;6.50;99.90;;;;;;5041296;28;20039;-72
2023/01/10 11:29:16;;;;;;;26.00;6.53;;;6.60;99.90;;;;;;5051518;28;20939;-75
2023/01/10 11:31:44;;;;;;;33.15;7.20;;;6.60;99.90;;;;;;5058824;28;20043;-76
2023/01/10 11:34:36;;;;;;;36.47;7.53;;;7.10;99.90;;;;;;5039616;28;20577;-76
2023/01/10 11:37:18;;;;;;;34.83;6.82;;;6.60;99.90;;;;;;5070716;28;20056;-74
2023/01/10 11:39:43;;;;;;;40.20;8.77;;;6.90;99.90;;;;;;5047614;28;20980;-71
2023/01/10 11:42:29;;;;;;;35.75;8.90;;;6.60;99.90;;;;;;5072269;28;20732;-71
2023/01/10 11:45:14;;;;;;;37.25;8.23;;;6.80;99.90;;;;;;5071729;28;20047;-70
2023/01/10 11:47:43;;;;;;;33.08;8.20;;;6.70;99.90;;;;;;5058247;28;20591;-71
2023/01/10 11:50:10;;;;;;;38.78;9.73;;;6.70;99.90;;;;;;5048836;28;20044;-72
2023/01/10 11:52:42;;;;;;;37.97;9.43;;;6.70;99.90;;;;;;5059748;28;20062;-71
2023/01/10 11:55:08;;;;;;;37.55;8.10;;;6.70;99.90;;;;;;5050336;28;20680;-72
2023/01/10 11:57:34;;;;;;;30.88;8.50;;;6.70;99.90;;;;;;5050951;28;20063;-71
2023/01/10 12:00:04;;;;;;;37.75;8.55;;;6.70;99.90;;;;;;5059159;28;20051;-71
2023/01/10 12:02:51;;;;;;;36.88;9.48;;;6.70;99.90;;;;;;5070943;28;20040;-70
2023/01/10 12:05:19;;;;;;;38.65;8.70;;;6.70;99.90;;;;;;5064862;28;20405;-70
2023/01/10 12:07:57;;;;;;;39.40;8.02;;;6.70;99.90;;;;;;5058332;28;20043;-72
2023/01/10 12:10:26;;;;;;;37.53;8.23;;;6.60;99.90;;;;;;5075453;28;20032;-71
2023/01/10 12:12:57;;;;;;;32.45;8.32;;;6.60;99.90;;;;;;5051539;28;20076;-72
2023/01/10 12:15:28;;;;;;;31.50;6.97;;;6.60;99.90;;;;;;5035274;28;20132;-71
2023/01/10 12:18:03;;;;;;;27.75;7.15;;;6.60;99.90;;;;;;5052566;28;20382;-71
2023/01/10 12:20:32;;;;;;;25.17;6.95;;;6.60;99.90;;;;;;5052588;28;20051;-71
2023/01/10 12:23:04;;;;;;;32.22;7.63;;;6.60;99.90;;;;;;5041340;28;20044;-71
2023/01/10 12:25:41;;;;;;;31.15;6.00;;;6.50;99.90;;;;;;5060745;28;20066;-71
2023/01/10 12:28:21;;;;;;;31.27;7.60;;;6.70;99.90;;;;;;5052261;28;20225;-71
2023/01/10 12:30:51;;;;;;;26.30;6.35;;;6.50;99.90;;;;;;5038201;28;20095;-71
2023/01/10 12:33:35;;;;;;;31.55;5.82;;;6.60;99.90;;;;;;5072351;28;20461;-71
2023/01/10 12:36:23;;;;;;;29.27;7.38;;;6.50;99.90;;;;;;5046490;28;20139;-72
2023/01/10 12:39:25;;;;;;;45.38;8.18;;;6.50;99.90;;;;;;5059421;28;20066;-71
2023/01/10 12:44:51;;;;;;;26.50;6.30;;;6.50;99.90;;;;;;5072444;28;20527;-71
2023/01/10 12:47:25;;;;;;;36.47;7.50;;;6.50;99.90;;;;;;5076380;28;20123;-72
2023/01/10 12:50:12;;;;;;;30.25;6.88;;;6.50;99.90;;;;;;5083499;28;20702;-71
2023/01/10 12:52:51;;;;;;;33.15;7.03;;;6.50;99.90;;;;;;5065114;28;20044;-71
2023/01/10 12:55:23;;;;;;;28.67;6.18;;;6.80;99.90;;;;;;5059900;28;20055;-72
2023/01/10 12:57:56;;;;;;;;;;;6.50;99.90;;;;;;5042252;28;20052;-71
2023/01/10 13:00:57;;;;;;;30.98;5.63;;;6.50;99.90;;;;;;5078828;28;20021;-71
2023/01/10 13:03:28;;;;;;;38.22;6.93;;;6.50;99.90;;;;;;5040552;28;20066;-72
2023/01/10 13:05:56;;;;;;;29.52;6.80;;;6.50;99.90;;;;;;5077766;28;20055;-71
2023/01/10 13:08:25;;;;;;;31.38;6.70;;;6.50;99.90;;;;;;5056369;28;20052;-70
2023/01/10 13:10:54;;;;;;;26.88;5.80;;;6.50;99.90;;;;;;5058720;28;20044;-71
2023/01/10 13:13:34;;;;;;;36.85;6.82;;;6.50;99.90;;;;;;5041052;28;20126;-70
2023/01/10 13:16:24;;;;;;;31.60;6.38;;;6.50;99.90;;;;;;5076228;28;20216;-71
2023/01/10 13:19:02;;;;;;;27.10;6.20;;;6.50;99.90;;;;;;5071857;28;20238;-71
2023/01/10 13:21:29;;;;;;;36.08;6.85;;;6.50;99.90;;;;;;5039995;28;20060;-71